Time;durP1;ratioP1;P1;durP2;ratioP2;P2;SDS_P1;SDS_P2;PMS_P1;PMS_P2;Temp;Humidity;BMP_temperature;BMP_pressure;BME280_temperature;BME280_humidity;BME280_pressure;Samples;Min_cycle;Max_cycle;Signal;HPM_P1;HPM_P2
2023/01/26 00:02:20;;;;;;;74.20;27.20;;;1.40;99.90;;;;;;5004880;28;20401;-61
2023/01/26 00:04:46;;;;;;;79.55;29.30;;;1.40;99.90;;;;;;5017621;28;20489;-61
2023/01/26 00:07:12;;;;;;;80.80;27.17;;;1.40;99.90;;;;;;5000944;28;20093;-60
2023/01/26 00:09:37;;;;;;;85.57;29.08;;;1.40;99.90;;;;;;5001336;28;20505;-61
2023/01/26 00:12:03;;;;;;;74.13;26.77;;;1.40;99.90;;;;;;5008037;28;20187;-59
2023/01/26 00:14:48;;;;;;;80.70;27.15;;;1.40;99.90;;;;;;4982564;28;20045;-60
2023/01/26 00:17:15;;;;;;;73.68;27.70;;;1.40;99.90;;;;;;5008026;28;20439;-61
2023/01/26 00:19:41;;;;;;;72.13;27.10;;;1.50;99.90;;;;;;5001283;28;20046;-61
2023/01/26 00:22:07;;;;;;;79.47;27.13;;;1.50;99.90;;;;;;5003108;28;20489;-60
2023/01/26 00:24:32;;;;;;;78.53;28.98;;;1.50;99.90;;;;;;5001236;28;20038;-60
2023/01/26 00:26:58;;;;;;;75.28;26.98;;;1.50;99.90;;;;;;4985283;28;20069;-61
2023/01/26 00:29:24;;;;;;;71.13;25.45;;;1.50;99.90;;;;;;5032161;28;20390;-62
2023/01/26 00:31:49;;;;;;;76.45;27.35;;;1.50;99.90;;;;;;5019445;28;20172;-59
2023/01/26 00:34:15;;;;;;;78.50;27.55;;;1.50;99.90;;;;;;5001257;28;20049;-57
2023/01/26 00:36:41;;;;;;;74.20;27.08;;;1.50;99.90;;;;;;5002870;28;20060;-61
2023/01/26 00:39:06;;;;;;;77.53;28.75;;;1.50;99.90;;;;;;5001999;28;20500;-59
2023/01/26 00:44:16;;;;;;;79.95;26.95;;;1.40;99.90;;;;;;5017525;28;20042;-60
2023/01/26 00:46:42;;;;;;;75.55;26.80;;;1.50;99.90;;;;;;4997825;28;20042;-61
2023/01/26 00:49:07;;;;;;;90.43;29.63;;;1.40;99.90;;;;;;5017154;28;20104;-61
2023/01/26 00:51:33;;;;;;;80.13;28.27;;;1.50;99.90;;;;;;5004261;28;20044;-60
2023/01/26 00:53:59;;;;;;;85.88;27.77;;;1.50;99.90;;;;;;5000138;28;20037;-61
2023/01/26 00:56:26;;;;;;;79.53;27.02;;;1.50;99.90;;;;;;4990480;28;20042;-61
2023/01/26 00:58:52;;;;;;;79.15;26.70;;;1.50;99.90;;;;;;4995736;28;20103;-61
2023/01/26 01:01:18;;;;;;;84.68;28.20;;;1.50;99.90;;;;;;4995472;28;20510;-60
2023/01/26 01:03:43;;;;;;;74.88;26.95;;;1.40;99.90;;;;;;4994168;28;20049;-59
2023/01/26 01:06:09;;;;;;;74.57;26.67;;;1.50;99.90;;;;;;5000930;28;20041;-61
2023/01/26 01:08:35;;;;;;;75.72;28.38;;;1.50;99.90;;;;;;5007891;23;20023;-57
2023/01/26 01:11:09;;;;;;;83.78;30.00;;;1.50;99.90;;;;;;4975907;28;20042;-56
2023/01/26 01:13:35;;;;;;;78.38;27.75;;;1.50;99.90;;;;;;4976363;28;20042;-57
2023/01/26 01:16:08;;;;;;;87.38;29.80;;;1.50;99.90;;;;;;4960772;28;20162;-56
2023/01/26 01:18:34;;;;;;;81.30;27.77;;;1.50;99.90;;;;;;4976119;28;20035;-54
2023/01/26 01:21:05;;;;;;;78.85;29.58;;;1.50;99.90;;;;;;4979632;28;20169;-58
2023/01/26 01:23:31;;;;;;;80.70;28.35;;;1.50;99.90;;;;;;4981395;28;20050;-56
2023/01/26 01:25:58;;;;;;;93.30;31.02;;;1.50;99.90;;;;;;4980046;28;20046;-56
2023/01/26 01:28:24;;;;;;;80.03;28.38;;;1.60;99.90;;;;;;4981292;28;20045;-57
2023/01/26 01:30:49;;;;;;;65.90;25.77;;;1.60;99.90;;;;;;4979657;28;20053;-57
2023/01/26 01:33:15;;;;;;;84.75;27.42;;;1.60;99.90;;;;;;4984381;28;20046;-57
2023/01/26 01:35:41;;;;;;;77.10;26.65;;;1.60;99.90;;;;;;4975203;28;20046;-58
2023/01/26 01:38:07;;;;;;;69.43;26.38;;;1.60;99.90;;;;;;4947874;28;20417;-58
2023/01/26 01:40:32;;;;;;;73.70;27.08;;;1.60;99.90;;;;;;4962450;28;20050;-56
2023/01/26 01:42:58;;;;;;;88.97;28.08;;;1.70;99.90;;;;;;4982020;28;20092;-58
2023/01/26 01:45:44;;;;;;;80.82;27.33;;;1.70;99.90;;;;;;4961723;28;20039;-57
2023/01/26 01:48:25;;;;;;;71.78;25.98;;;1.70;99.90;;;;;;4963502;28;20046;-58
2023/01/26 01:50:55;;;;;;;75.60;26.20;;;1.70;99.90;;;;;;4982079;28;20101;-57
2023/01/26 01:53:28;;;;;;;74.43;26.38;;;1.70;99.90;;;;;;4981942;28;20097;-56
2023/01/26 01:55:58;;;;;;;70.97;26.15;;;1.70;99.90;;;;;;4983125;28;20034;-57
2023/01/26 01:58:26;;;;;;;75.63;26.60;;;1.80;99.90;;;;;;4984876;28;20042;-57
2023/01/26 02:00:52;;;;;;;67.40;25.67;;;1.70;99.90;;;;;;4981173;28;20038;-57
2023/01/26 02:03:19;;;;;;;65.35;25.00;;;1.80;99.90;;;;;;4975922;28;20081;-54
2023/01/26 02:06:07;;;;;;;58.05;22.98;;;1.80;99.90;;;;;;4974957;28;20042;-57
2023/01/26 02:08:38;;;;;;;58.13;21.55;;;1.80;99.90;;;;;;4962363;28;20054;-57
2023/01/26 02:11:10;;;;;;;63.78;24.55;;;1.80;99.90;;;;;;4981181;28;20050;-57
2023/01/26 02:13:38;;;;;;;64.85;23.20;;;1.80;99.90;;;;;;4982304;28;20434;-57
2023/01/26 02:16:04;;;;;;;76.63;26.48;;;1.80;99.90;;;;;;4985366;28;20058;-57
2023/01/26 02:18:30;;;;;;;63.30;24.52;;;1.90;99.90;;;;;;4959982;28;20398;-57
2023/01/26 02:20:59;;;;;;;61.10;23.90;;;1.90;99.90;;;;;;4974001;28;20038;-57
2023/01/26 02:23:49;;;;;;;64.22;23.00;;;1.90;99.90;;;;;;4977793;28;20042;-57
2023/01/26 02:26:24;;;;;;;79.90;26.67;;;2.00;99.90;;;;;;4979847;28;20046;-57
2023/01/26 02:28:50;;;;;;;68.38;24.05;;;2.00;99.90;;;;;;4982276;28;20469;-58
2023/01/26 02:31:17;;;;;;;68.72;24.15;;;2.00;99.90;;;;;;4964600;28;20038;-58
2023/01/26 02:33:44;;;;;;;59.10;23.23;;;2.00;99.90;;;;;;4968960;28;20138;-58
2023/01/26 02:36:22;;;;;;;59.00;22.13;;;2.00;99.90;;;;;;4979267;28;20250;-57
2023/01/26 02:39:03;;;;;;;59.25;22.27;;;2.10;99.90;;;;;;4967618;28;20108;-56
2023/01/26 02:44:14;;;;;;;58.22;22.25;;;2.10;99.90;;;;;;4968844;28;20290;-58
2023/01/26 02:46:39;;;;;;;54.35;20.80;;;2.20;99.90;;;;;;4984590;28;20034;-57
2023/01/26 02:51:49;;;;;;;54.03;21.17;;;2.20;99.90;;;;;;4984303;28;20525;-56
2023/01/26 02:56:59;;;;;;;;;;;2.20;99.90;;;;;;4966315;28;20042;-58
2023/01/26 02:59:25;;;;;;;65.70;24.05;;;2.20;99.90;;;;;;4987819;28;19944;-57
2023/01/26 03:01:52;;;;;;;56.05;23.40;;;2.20;99.90;;;;;;4987659;28;20061;-57
2023/01/26 03:04:17;;;;;;;61.70;22.67;;;2.20;99.90;;;;;;4978489;28;20125;-57
2023/01/26 03:06:43;;;;;;;53.30;21.75;;;2.20;99.90;;;;;;4962506;28;20488;-56
2023/01/26 03:09:09;;;;;;;53.83;22.30;;;2.30;99.90;;;;;;4983367;28;20038;-57
2023/01/26 03:11:40;;;;;;;69.32;24.05;;;2.30;99.90;;;;;;4984388;28;20093;-57
2023/01/26 03:14:14;;;;;;;50.67;20.50;;;2.40;99.90;;;;;;4981644;28;20085;-56
2023/01/26 03:16:40;;;;;;;56.90;22.63;;;2.40;99.90;;;;;;4981973;28;20434;-57
2023/01/26 03:29:46;;;;;;;61.17;24.85;;;2.50;99.90;;;;;;5000543;28;20046;-57
2023/01/26 03:32:12;;;;;;;68.60;25.80;;;2.50;99.90;;;;;;4983887;28;20142;-58
2023/01/26 03:34:38;;;;;;;64.43;25.05;;;2.60;99.90;;;;;;4979424;28;20449;-57
2023/01/26 03:37:04;;;;;;;74.85;25.10;;;2.60;99.90;;;;;;4985332;28;20077;-57
2023/01/26 03:58:42;;;;;;;;;;;2.70;99.90;;;;;;4981454;28;20042;-56
2023/01/26 04:01:09;;;;;;;74.90;25.85;;;2.70;99.90;;;;;;4979343;28;19925;-55
2023/01/26 04:09:04;;;;;;;96.13;28.60;;;2.70;99.90;;;;;;4982017;28;20046;-55
2023/01/26 04:11:30;;;;;;;74.03;24.50;;;2.80;99.90;;;;;;4979839;28;20109;-57
2023/01/26 04:22:08;;;;;;;77.47;26.52;;;2.80;99.90;;;;;;4983117;28;20125;-58
2023/01/26 04:24:34;;;;;;;79.93;27.23;;;2.90;99.90;;;;;;4964417;28;20450;-57
2023/01/26 04:26:59;;;;;;;91.50;28.33;;;2.90;99.90;;;;;;4975751;28;20054;-57
2023/01/26 04:29:25;;;;;;;107.07;31.77;;;2.90;99.90;;;;;;4971612;28;20326;-56
2023/01/26 04:31:51;;;;;;;94.55;29.13;;;2.90;99.90;;;;;;4955238;28;20456;-57
2023/01/26 04:34:16;;;;;;;73.38;25.55;;;2.90;99.90;;;;;;4977129;28;20101;-57
2023/01/26 04:36:43;;;;;;;65.32;23.35;;;2.90;99.90;;;;;;4982305;28;20367;-57
2023/01/26 04:39:09;;;;;;;86.53;25.23;;;2.90;99.90;;;;;;4980735;28;20046;-57
2023/01/26 04:41:34;;;;;;;85.05;24.08;;;3.00;99.90;;;;;;4985340;28;20401;-56
2023/01/26 04:44:00;;;;;;;97.43;28.63;;;3.00;99.90;;;;;;4979761;28;20117;-55
2023/01/26 04:46:26;;;;;;;87.30;24.65;;;3.10;99.90;;;;;;4965417;28;20034;-55
2023/01/26 04:48:52;;;;;;;81.20;23.70;;;3.30;99.90;;;;;;4978963;28;20042;-56
2023/01/26 04:51:20;;;;;;;82.30;23.25;;;3.30;99.90;;;;;;4979796;28;20068;-56
2023/01/26 04:53:47;;;;;;;82.20;23.00;;;3.40;99.90;;;;;;4979996;28;20030;-58
2023/01/26 04:56:27;;;;;;;82.57;23.58;;;3.40;99.90;;;;;;4984889;28;20054;-57
2023/01/26 04:58:54;;;;;;;98.55;24.80;;;3.50;99.90;;;;;;4981585;28;20042;-55
2023/01/26 05:01:20;;;;;;;81.10;23.85;;;3.60;99.90;;;;;;4997726;28;20477;-54
2023/01/26 05:03:46;;;;;;;86.40;22.90;;;3.60;99.90;;;;;;4980227;28;20045;-58
2023/01/26 05:06:12;;;;;;;81.53;22.23;;;3.70;99.90;;;;;;4983327;28;20042;-57
2023/01/26 05:08:38;;;;;;;81.88;22.20;;;3.70;99.90;;;;;;4965247;28;20070;-54
2023/01/26 05:11:04;;;;;;;91.68;21.35;;;3.70;99.90;;;;;;4996936;28;20105;-57
2023/01/26 05:13:30;;;;;;;80.35;20.27;;;3.70;99.90;;;;;;4965417;28;20053;-54
2023/01/26 05:15:56;;;;;;;66.47;17.77;;;3.80;99.90;;;;;;4982042;28;20046;-57
2023/01/26 05:18:22;;;;;;;70.18;16.33;;;3.80;99.90;;;;;;4961865;28;20041;-56
2023/01/26 05:20:47;;;;;;;59.17;14.18;;;3.90;99.90;;;;;;4962691;28;20177;-56
2023/01/26 05:23:13;;;;;;;64.32;14.20;;;4.00;99.90;;;;;;4980321;28;20054;-56
2023/01/26 05:25:38;;;;;;;57.22;12.50;;;4.00;99.90;;;;;;4977126;28;20050;-55
2023/01/26 05:28:04;;;;;;;52.60;11.38;;;4.00;99.90;;;;;;4983463;28;20035;-58
2023/01/26 05:30:30;;;;;;;48.22;9.73;;;4.10;99.90;;;;;;4979751;28;20571;-57
2023/01/26 05:33:01;;;;;;;45.95;8.52;;;4.10;99.90;;;;;;4978928;28;20121;-56
2023/01/26 05:35:26;;;;;;;39.30;8.55;;;4.20;99.90;;;;;;4979228;28;20597;-57
2023/01/26 05:37:52;;;;;;;43.25;7.05;;;4.30;99.90;;;;;;4978206;28;20057;-56
2023/01/26 05:40:18;;;;;;;41.97;6.72;;;4.20;99.90;;;;;;4964355;28;20034;-58
2023/01/26 05:42:43;;;;;;;43.33;6.57;;;4.40;99.90;;;;;;4981801;28;20177;-57
2023/01/26 05:45:09;;;;;;;35.88;7.22;;;4.40;99.90;;;;;;4983682;28;20502;-58
2023/01/26 05:47:35;;;;;;;41.92;6.03;;;4.40;99.90;;;;;;4983784;28;20389;-57
2023/01/26 05:50:01;;;;;;;60.20;7.53;;;4.40;99.90;;;;;;4984415;28;20535;-58
2023/01/26 05:52:26;;;;;;;41.83;8.18;;;4.50;99.90;;;;;;4983952;28;20039;-57
2023/01/26 05:54:52;;;;;;;51.78;7.10;;;4.50;99.90;;;;;;4985614;28;20042;-58
2023/01/26 05:57:18;;;;;;;41.03;6.85;;;4.60;99.90;;;;;;4979146;28;20520;-58
2023/01/26 05:59:43;;;;;;;47.67;5.82;;;4.60;99.90;;;;;;4986103;28;20042;-58
2023/01/26 06:02:12;;;;;;;40.22;7.40;;;4.60;99.90;;;;;;4984219;28;20456;-56
2023/01/26 06:04:38;;;;;;;39.70;6.32;;;4.60;99.90;;;;;;4983678;28;23719;-58
2023/01/26 06:07:04;;;;;;;36.72;5.05;;;4.70;99.90;;;;;;4984591;28;20405;-56
2023/01/26 06:09:30;;;;;;;52.53;7.10;;;4.60;99.90;;;;;;4998822;28;20070;-58
2023/01/26 06:11:56;;;;;;;38.13;6.22;;;4.70;99.90;;;;;;4985160;28;20405;-56
2023/01/26 06:14:22;;;;;;;43.63;6.63;;;4.60;99.90;;;;;;4988802;28;20043;-58
2023/01/26 06:16:48;;;;;;;43.63;5.53;;;4.70;99.90;;;;;;4975877;28;20042;-57
2023/01/26 06:19:13;;;;;;;40.67;6.47;;;4.70;99.90;;;;;;4977757;28;20038;-57
2023/01/26 06:21:39;;;;;;;50.63;6.30;;;4.70;99.90;;;;;;4999358;28;20057;-58
2023/01/26 06:24:05;;;;;;;48.97;8.80;;;4.70;99.90;;;;;;4986240;28;20039;-58
2023/01/26 06:26:31;;;;;;;46.92;6.00;;;4.70;99.90;;;;;;4980175;28;20035;-58
2023/01/26 06:28:57;;;;;;;43.10;6.75;;;4.70;99.90;;;;;;4986357;28;20034;-58
2023/01/26 06:31:23;;;;;;;40.40;6.82;;;4.80;99.90;;;;;;4982093;28;20759;-57
2023/01/26 06:33:49;;;;;;;52.13;7.55;;;4.80;99.90;;;;;;4982947;28;20049;-58
2023/01/26 06:36:15;;;;;;;42.65;7.53;;;4.80;99.90;;;;;;4981005;28;20064;-58
2023/01/26 06:38:49;;;;;;;44.28;8.18;;;4.80;99.90;;;;;;4984255;28;20121;-58
2023/01/26 06:41:16;;;;;;;45.15;6.85;;;4.80;99.90;;;;;;4992096;28;20043;-58
2023/01/26 06:43:47;;;;;;;44.80;6.22;;;4.70;99.90;;;;;;4967522;28;20121;-58
2023/01/26 06:46:14;;;;;;;43.33;7.75;;;4.70;99.90;;;;;;4982780;28;20034;-58
2023/01/26 06:48:40;;;;;;;42.42;6.80;;;4.80;99.90;;;;;;4980070;28;20630;-58
2023/01/26 06:51:15;;;;;;;36.75;5.85;;;4.80;99.90;;;;;;4966589;28;20042;-57
2023/01/26 06:53:57;;;;;;;35.10;5.82;;;4.90;99.90;;;;;;4981402;28;20394;-58
2023/01/26 06:56:23;;;;;;;36.95;5.90;;;4.80;99.90;;;;;;4979789;28;20054;-58
2023/01/26 06:58:50;;;;;;;46.15;6.72;;;4.80;99.90;;;;;;4980335;28;20038;-58
2023/01/26 07:01:24;;;;;;;47.05;7.53;;;4.80;99.90;;;;;;4967181;28;20133;-57
2023/01/26 07:03:54;;;;;;;40.47;5.20;;;4.80;99.90;;;;;;4986946;28;20038;-58
2023/01/26 07:06:20;;;;;;;50.75;7.00;;;4.80;99.90;;;;;;4989802;28;20538;-57
2023/01/26 07:08:46;;;;;;;42.85;5.68;;;4.80;99.90;;;;;;4986957;28;20041;-57
2023/01/26 07:11:12;;;;;;;40.03;6.65;;;4.80;99.90;;;;;;4967092;28;20065;-58
2023/01/26 07:13:38;;;;;;;29.98;5.18;;;4.80;99.90;;;;;;4965382;28;20126;-58
2023/01/26 07:16:10;;;;;;;41.05;6.10;;;4.80;99.90;;;;;;4995041;23;20143;-60
2023/01/26 07:18:37;;;;;;;45.10;5.97;;;4.70;99.90;;;;;;4997762;28;20042;-61
2023/01/26 07:21:10;;;;;;;37.90;5.43;;;4.80;99.90;;;;;;4999724;28;20362;-61
2023/01/26 07:23:36;;;;;;;;;;;4.70;99.90;;;;;;4999377;28;20050;-59
2023/01/26 07:26:02;;;;;;;35.42;7.53;;;4.70;99.90;;;;;;4957692;28;20081;-60
2023/01/26 07:28:29;;;;;;;33.75;6.65;;;4.70;99.90;;;;;;4979465;28;20054;-60
2023/01/26 07:31:02;;;;;;;44.53;6.82;;;4.70;99.90;;;;;;4983801;28;20042;-61
2023/01/26 07:33:28;;;;;;;38.92;6.25;;;4.60;99.90;;;;;;4968059;28;20052;-61
2023/01/26 07:35:55;;;;;;;44.83;8.30;;;4.60;99.90;;;;;;4977756;28;20038;-61
2023/01/26 07:38:21;;;;;;;36.25;5.75;;;4.60;99.90;;;;;;4979204;28;20046;-60
2023/01/26 07:40:47;;;;;;;35.33;6.05;;;4.60;99.90;;;;;;4971204;28;20046;-60
2023/01/26 07:43:14;;;;;;;48.70;6.90;;;4.60;99.90;;;;;;4985215;28;20064;-60
2023/01/26 07:45:43;;;;;;;38.22;5.82;;;4.60;99.90;;;;;;4987544;28;20074;-61
2023/01/26 07:48:09;;;;;;;29.67;5.63;;;4.60;99.90;;;;;;4981084;28;20121;-60
2023/01/26 07:50:35;;;;;;;36.47;5.68;;;4.50;99.90;;;;;;4979374;28;20142;-61
2023/01/26 07:53:00;;;;;;;39.90;5.28;;;4.50;99.90;;;;;;4980331;28;20030;-60
2023/01/26 07:55:26;;;;;;;30.30;4.45;;;4.40;99.90;;;;;;4984295;28;20565;-60
2023/01/26 07:57:52;;;;;;;34.25;5.25;;;4.40;99.90;;;;;;4973994;28;20437;-61
2023/01/26 08:00:18;;;;;;;33.35;5.15;;;4.40;99.90;;;;;;4975554;28;20035;-60
2023/01/26 08:02:49;;;;;;;48.75;7.68;;;4.40;99.90;;;;;;4978749;28;20818;-60
2023/01/26 08:05:14;;;;;;;36.92;5.95;;;4.40;99.90;;;;;;4983402;28;20784;-61
2023/01/26 08:07:40;;;;;;;36.33;7.18;;;4.40;99.90;;;;;;4977453;28;20062;-61
2023/01/26 08:10:06;;;;;;;39.40;7.13;;;4.40;99.90;;;;;;4978161;28;20042;-61
2023/01/26 08:12:34;;;;;;;38.17;5.68;;;4.40;99.90;;;;;;4975124;28;20238;-60
2023/01/26 08:15:00;;;;;;;41.40;5.55;;;4.50;99.90;;;;;;4972520;28;20163;-60
2023/01/26 08:17:28;;;;;;;35.03;7.28;;;4.50;99.90;;;;;;4976233;28;20117;-60
2023/01/26 08:19:54;;;;;;;47.15;7.57;;;4.60;99.90;;;;;;4981839;28;20047;-61
2023/01/26 08:22:19;;;;;;;29.65;4.75;;;4.60;99.90;;;;;;4977869;28;20125;-60
2023/01/26 08:24:45;;;;;;;35.08;5.43;;;4.60;99.90;;;;;;4977889;28;20094;-59
2023/01/26 08:27:11;;;;;;;35.63;5.78;;;4.60;99.90;;;;;;4978029;28;20044;-61
2023/01/26 08:29:37;;;;;;;36.65;5.72;;;4.70;99.90;;;;;;4974680;28;20078;-61
2023/01/26 08:32:02;;;;;;;38.42;5.78;;;4.70;99.90;;;;;;4976890;28;21304;-61
2023/01/26 08:34:28;;;;;;;32.28;5.00;;;4.70;99.90;;;;;;4982314;28;20035;-60
2023/01/26 08:36:54;;;;;;;38.65;5.68;;;4.80;99.90;;;;;;4991596;28;20461;-60
2023/01/26 08:39:20;;;;;;;31.60;4.78;;;4.80;99.90;;;;;;4980763;28;20043;-61
2023/01/26 08:41:46;;;;;;;28.60;5.25;;;4.80;99.90;;;;;;4985125;28;20038;-60
2023/01/26 08:44:12;;;;;;;28.58;5.22;;;4.90;99.90;;;;;;4983860;28;20105;-61
2023/01/26 08:46:37;;;;;;;32.42;5.20;;;4.90;99.90;;;;;;4985465;28;20393;-60
2023/01/26 08:49:03;;;;;;;23.35;4.45;;;5.00;99.90;;;;;;4994189;28;20074;-61
2023/01/26 08:51:29;;;;;;;32.20;6.07;;;5.00;99.90;;;;;;4977196;28;20490;-61
2023/01/26 08:53:55;;;;;;;30.50;6.18;;;5.10;99.90;;;;;;4984552;28;20043;-61
2023/01/26 08:56:21;;;;;;;38.47;4.78;;;5.10;99.90;;;;;;4985691;28;20052;-61
2023/01/26 08:58:47;;;;;;;43.42;5.70;;;5.20;99.90;;;;;;4979774;28;20047;-60
2023/01/26 09:01:14;;;;;;;36.25;5.80;;;5.20;99.90;;;;;;4982594;28;20130;-60
2023/01/26 09:03:41;;;;;;;33.72;4.80;;;5.30;99.90;;;;;;4988580;28;20081;-61
2023/01/26 09:06:09;;;;;;;21.52;4.32;;;5.30;99.90;;;;;;4985294;28;20046;-61
2023/01/26 09:08:34;;;;;;;26.88;5.72;;;5.40;99.90;;;;;;4979176;28;20037;-60
2023/01/26 09:11:00;;;;;;;23.58;4.65;;;5.50;99.90;;;;;;4988456;28;20041;-60
2023/01/26 09:13:26;;;;;;;46.80;6.20;;;5.50;99.90;;;;;;4983966;28;20030;-60
2023/01/26 09:15:52;;;;;;;32.58;5.93;;;5.60;99.90;;;;;;4982334;28;20049;-61
2023/01/26 09:18:18;;;;;;;37.13;6.22;;;5.60;99.90;;;;;;4986126;28;20463;-60
2023/01/26 09:20:44;;;;;;;35.25;6.15;;;5.60;99.90;;;;;;4986365;28;20400;-61
2023/01/26 09:23:11;;;;;;;28.85;5.28;;;5.60;99.90;;;;;;5013118;28;20096;-60
2023/01/26 09:25:38;;;;;;;29.65;5.43;;;5.60;99.90;;;;;;4985020;28;20561;-60
2023/01/26 09:28:04;;;;;;;41.90;5.75;;;5.60;99.90;;;;;;4986270;28;20097;-61
2023/01/26 09:30:31;;;;;;;37.00;5.97;;;5.60;99.90;;;;;;4987875;28;20600;-61
2023/01/26 09:33:03;;;;;;;36.80;5.00;;;5.70;99.90;;;;;;4990788;28;20109;-60
2023/01/26 09:35:30;;;;;;;28.40;5.38;;;5.70;99.90;;;;;;4989089;28;20408;-61
2023/01/26 09:37:55;;;;;;;36.78;4.95;;;5.70;99.90;;;;;;4995942;28;20030;-60
2023/01/26 09:40:48;;;;;;;25.95;4.70;;;5.70;99.90;;;;;;4991925;28;20045;-61
2023/01/26 09:43:28;;;;;;;32.00;5.30;;;5.80;99.90;;;;;;4993525;28;20076;-60
2023/01/26 09:46:03;;;;;;;33.10;5.40;;;5.80;99.90;;;;;;4971714;28;20053;-60
2023/01/26 09:48:38;;;;;;;29.08;5.82;;;5.80;99.90;;;;;;4987759;28;20556;-60
2023/01/26 09:51:18;;;;;;;42.78;6.13;;;5.90;99.90;;;;;;4982674;28;20593;-60
2023/01/26 09:53:54;;;;;;;26.83;4.63;;;5.90;99.90;;;;;;4985661;28;20123;-61
2023/01/26 09:56:24;;;;;;;35.22;5.60;;;6.00;99.90;;;;;;4983079;28;20516;-61
2023/01/26 09:59:12;;;;;;;35.35;5.03;;;6.00;99.90;;;;;;4989923;28;20130;-61
2023/01/26 10:01:48;;;;;;;40.13;6.50;;;6.10;99.90;;;;;;4977243;28;20094;-60
2023/01/26 10:04:39;;;;;;;27.67;4.85;;;6.20;99.90;;;;;;4987780;28;20034;-61
2023/01/26 10:07:08;;;;;;;34.70;5.93;;;6.20;99.90;;;;;;4986141;28;20057;-62
2023/01/26 10:09:37;;;;;;;29.60;4.78;;;6.30;99.90;;;;;;4979016;28;20582;-60
2023/01/26 10:12:10;;;;;;;38.80;5.35;;;6.40;99.90;;;;;;4984074;28;20118;-60
2023/01/26 10:14:43;;;;;;;38.30;6.38;;;6.50;99.90;;;;;;4976397;28;20447;-60
2023/01/26 10:17:18;;;;;;;42.72;5.22;;;6.60;99.90;;;;;;4982117;28;20065;-61
2023/01/26 10:19:49;;;;;;;27.33;4.03;;;6.60;99.90;;;;;;4984929;28;20046;-60
2023/01/26 10:22:32;;;;;;;16.50;3.28;;;6.70;99.90;;;;;;4961854;28;20144;-61
2023/01/26 10:24:59;;;;;;;39.45;5.53;;;6.70;99.90;;;;;;4981850;28;20581;-61
2023/01/26 10:27:27;;;;;;;28.17;4.75;;;6.80;99.90;;;;;;4979164;28;20054;-61
2023/01/26 10:29:52;;;;;;;29.08;5.13;;;6.90;99.90;;;;;;4977207;28;20053;-64
2023/01/26 10:32:18;;;;;;;26.30;4.25;;;7.00;99.90;;;;;;4968960;28;20577;-60
2023/01/26 10:34:48;;;;;;;27.63;4.28;;;7.10;99.90;;;;;;4970940;28;20042;-60
2023/01/26 10:37:27;;;;;;;17.33;4.22;;;7.20;99.90;;;;;;4979129;28;20035;-59
2023/01/26 10:39:59;;;;;;;19.33;4.45;;;7.30;99.90;;;;;;4977495;28;20144;-61
2023/01/26 10:42:31;;;;;;;31.77;5.43;;;7.40;99.90;;;;;;4973981;28;20046;-59
2023/01/26 10:44:59;;;;;;;20.05;3.40;;;7.50;99.90;;;;;;4972593;28;20046;-60
2023/01/26 10:47:24;;;;;;;17.45;3.20;;;7.50;99.90;;;;;;4970823;28;20042;-60
2023/01/26 10:49:51;;;;;;;24.67;3.75;;;7.50;99.90;;;;;;4973739;28;20093;-61
2023/01/26 10:52:20;;;;;;;15.85;2.97;;;7.60;99.90;;;;;;4975223;28;20043;-60
2023/01/26 10:54:50;;;;;;;25.13;3.53;;;7.60;99.90;;;;;;4968449;28;20053;-61
2023/01/26 10:57:26;;;;;;;19.05;2.97;;;7.60;99.90;;;;;;4955696;28;20038;-60
2023/01/26 10:59:54;;;;;;;22.58;3.40;;;7.50;99.90;;;;;;4971184;28;20089;-59
2023/01/26 11:02:26;;;;;;;26.98;3.72;;;7.50;99.90;;;;;;4966805;28;20052;-61
2023/01/26 11:05:07;;;;;;;19.35;3.28;;;7.40;99.90;;;;;;4973245;28;20547;-60
2023/01/26 11:07:41;;;;;;;18.52;3.00;;;7.40;99.90;;;;;;4972536;28;20063;-61
2023/01/26 11:10:19;;;;;;;16.67;2.90;;;7.30;99.90;;;;;;4977654;28;20172;-61
2023/01/26 11:12:46;;;;;;;18.95;4.05;;;7.30;99.90;;;;;;4987880;28;20318;-60
2023/01/26 11:15:23;;;;;;;18.45;3.20;;;7.30;99.90;;;;;;4959205;28;20054;-60
2023/01/26 11:17:59;;;;;;;21.70;4.38;;;7.20;99.90;;;;;;4973497;28;20038;-60
2023/01/26 11:20:57;;;;;;;19.67;3.85;;;7.20;99.90;;;;;;4974473;28;20572;-59
2023/01/26 11:23:36;;;;;;;29.95;4.60;;;7.20;99.90;;;;;;4971370;28;20314;-61
2023/01/26 11:26:05;;;;;;;26.75;4.82;;;7.20;99.90;;;;;;4976945;28;20125;-61
2023/01/26 11:29:22;;;;;;;25.85;5.70;;;7.20;99.90;;;;;;4972911;28;20050;-60
2023/01/26 11:31:51;;;;;;;29.38;7.22;;;7.30;99.90;;;;;;4932341;28;20051;-60
2023/01/26 11:34:31;;;;;;;23.98;5.05;;;7.50;99.90;;;;;;4972583;28;20050;-59
2023/01/26 11:37:02;;;;;;;18.08;4.00;;;7.60;99.90;;;;;;4972542;28;20058;-59
2023/01/26 11:39:50;;;;;;;26.02;4.28;;;7.60;99.90;;;;;;4973090;28;20030;-61
2023/01/26 11:42:38;;;;;;;25.45;3.63;;;7.70;99.90;;;;;;4973190;28;20394;-60
2023/01/26 11:45:44;;;;;;;26.77;4.57;;;7.80;99.90;;;;;;4970487;28;20058;-60
2023/01/26 11:48:46;;;;;;;21.00;3.65;;;8.10;99.90;;;;;;4967321;28;20062;-60
2023/01/26 11:51:43;;;;;;;23.65;3.63;;;8.20;99.90;;;;;;4977485;28;20049;-61
2023/01/26 11:54:14;;;;;;;19.00;3.38;;;8.20;99.90;;;;;;4973824;28;20057;-61
2023/01/26 11:56:46;;;;;;;26.58;4.57;;;8.20;99.90;;;;;;4967601;28;20041;-60
2023/01/26 11:59:17;;;;;;;21.00;3.25;;;8.10;99.90;;;;;;4973309;28;20462;-61
2023/01/26 12:01:51;;;;;;;19.17;2.83;;;8.10;99.90;;;;;;4974663;28;20046;-59
2023/01/26 12:04:19;;;;;;;19.98;3.33;;;8.10;99.90;;;;;;4993581;28;20027;-60
2023/01/26 12:06:52;;;;;;;21.00;2.95;;;8.10;99.90;;;;;;4968308;28;20042;-59
2023/01/26 12:09:35;;;;;;;11.23;2.20;;;8.10;99.90;;;;;;4973990;28;20455;-60
2023/01/26 12:12:10;;;;;;;27.17;3.85;;;8.10;99.90;;;;;;4975174;28;20104;-59
2023/01/26 12:14:39;;;;;;;18.92;2.80;;;8.10;99.90;;;;;;5000835;28;20314;-60
2023/01/26 12:17:29;;;;;;;13.43;2.65;;;8.10;99.90;;;;;;4974564;28;20189;-61
2023/01/26 12:20:30;;;;;;;11.70;3.25;;;8.20;99.90;;;;;;4975195;28;20093;-60
2023/01/26 12:23:10;;;;;;;26.17;3.88;;;8.20;99.90;;;;;;4969617;28;20137;-60
2023/01/26 12:25:39;;;;;;;21.88;3.35;;;8.20;99.90;;;;;;4983813;28;20121;-60
2023/01/26 12:28:11;;;;;;;17.42;2.45;;;8.20;99.90;;;;;;4985256;28;20488;-60
2023/01/26 12:30:52;;;;;;;15.45;2.80;;;8.20;99.90;;;;;;4977809;28;20043;-60
2023/01/26 12:33:17;;;;;;;16.40;2.45;;;8.20;99.90;;;;;;4974911;28;20066;-60
2023/01/26 12:36:02;;;;;;;18.85;2.83;;;8.10;99.90;;;;;;4975968;28;20580;-61
2023/01/26 12:38:58;;;;;;;12.88;2.55;;;8.20;99.90;;;;;;4984064;28;20726;-61
2023/01/26 12:42:10;;;;;;;18.38;2.75;;;8.20;99.90;;;;;;4979904;28;20744;-60
2023/01/26 12:44:51;;;;;;;15.52;2.10;;;8.20;99.90;;;;;;4981967;28;20121;-61
2023/01/26 12:47:33;;;;;;;16.58;2.75;;;8.20;99.90;;;;;;4972224;28;20038;-60
2023/01/26 12:50:03;;;;;;;15.20;2.22;;;8.10;99.90;;;;;;4977793;28;20038;-60
2023/01/26 12:52:35;;;;;;;20.88;2.47;;;8.20;99.90;;;;;;4958710;28;20096;-60
2023/01/26 12:55:23;;;;;;;14.75;2.40;;;8.20;99.90;;;;;;4974801;28;20039;-61
2023/01/26 12:58:23;;;;;;;13.90;2.05;;;8.20;99.90;;;;;;4980205;28;20065;-59
2023/01/26 13:01:02;;;;;;;17.58;2.85;;;8.20;99.90;;;;;;4963833;28;20385;-60
2023/01/26 13:03:33;;;;;;;18.77;2.80;;;8.20;99.90;;;;;;4977122;28;20049;-60
2023/01/26 13:06:16;;;;;;;14.98;2.40;;;8.20;99.90;;;;;;4979638;28;20074;-61
2023/01/26 13:08:56;;;;;;;14.77;2.40;;;8.30;99.90;;;;;;4977452;28;20113;-60
2023/01/26 13:11:49;;;;;;;19.23;3.20;;;8.30;99.90;;;;;;4980306;28;20533;-59
2023/01/26 13:14:24;;;;;;;16.65;2.72;;;8.30;99.90;;;;;;4976717;28;20164;-59
2023/01/26 13:16:50;;;;;;;12.65;3.08;;;8.30;99.90;;;;;;4972853;28;20521;-61
2023/01/26 13:19:52;;;;;;;13.27;3.15;;;8.20;99.90;;;;;;4965052;28;20139;-60
2023/01/26 13:22:18;;;;;;;14.52;2.78;;;8.50;99.90;;;;;;4935338;28;20061;-60
2023/01/26 13:24:47;;;;;;;15.52;2.80;;;8.10;99.90;;;;;;4974144;28;20501;-59
2023/01/26 13:27:52;;;;;;;15.05;3.30;;;8.10;99.90;;;;;;4982515;28;20050;-60
2023/01/26 13:30:26;;;;;;;20.33;2.95;;;8.10;99.90;;;;;;4980997;28;20108;-61
2023/01/26 13:33:14;;;;;;;21.88;2.67;;;8.10;99.90;;;;;;4979539;28;20046;-59
2023/01/26 13:35:41;;;;;;;12.35;2.53;;;8.00;99.90;;;;;;4966807;28;20054;-60
2023/01/26 13:38:25;;;;;;;14.55;2.53;;;8.00;99.90;;;;;;4982187;28;20065;-60
2023/01/26 13:40:50;;;;;;;18.15;3.00;;;8.00;99.90;;;;;;4985898;28;20186;-60
2023/01/26 13:43:26;;;;;;;14.75;2.88;;;8.00;99.90;;;;;;4987973;28;20038;-60
2023/01/26 13:46:28;;;;;;;15.25;2.22;;;7.90;99.90;;;;;;4981324;28;20042;-60
2023/01/26 13:48:55;;;;;;;14.07;1.83;;;7.90;99.90;;;;;;4986629;28;20546;-60
2023/01/26 13:51:27;;;;;;;8.63;1.92;;;7.90;99.90;;;;;;4970478;28;20129;-60
2023/01/26 13:53:56;;;;;;;13.88;3.08;;;7.90;99.90;;;;;;4985206;28;20046;-60
2023/01/26 13:56:26;;;;;;;11.55;1.83;;;7.90;99.90;;;;;;4987073;28;20054;-59